sensor_id;sensor_type;location;lat;lon;timestamp;P1;durP1;ratioP1;P2;durP2;ratioP2
43152;SDS011;28756;49.064;9.290;2022-10-16T00:01:08;0.80;;;0.60;;
43152;SDS011;28756;49.064;9.290;2022-10-16T00:03:37;1.00;;;0.77;;
43152;SDS011;28756;49.064;9.290;2022-10-16T00:06:07;0.75;;;0.60;;
43152;SDS011;28756;49.064;9.290;2022-10-16T00:08:35;0.60;;;0.50;;
43152;SDS011;28756;49.064;9.290;2022-10-16T00:11:09;1.23;;;0.70;;
43152;SDS011;28756;49.064;9.290;2022-10-16T00:13:39;1.90;;;0.55;;
43152;SDS011;28756;49.064;9.290;2022-10-16T00:16:07;2.90;;;0.85;;
43152;SDS011;28756;49.064;9.290;2022-10-16T00:18:34;0.80;;;0.60;;
43152;SDS011;28756;49.064;9.290;2022-10-16T00:21:06;0.85;;;0.70;;
43152;SDS011;28756;49.064;9.290;2022-10-16T00:23:35;0.63;;;0.60;;
43152;SDS011;28756;49.064;9.290;2022-10-16T00:26:03;0.82;;;0.80;;
43152;SDS011;28756;49.064;9.290;2022-10-16T00:28:33;0.85;;;0.60;;
43152;SDS011;28756;49.064;9.290;2022-10-16T00:31:07;0.80;;;0.65;;
43152;SDS011;28756;49.064;9.290;2022-10-16T00:33:35;1.25;;;0.68;;
43152;SDS011;28756;49.064;9.290;2022-10-16T00:36:04;1.27;;;0.77;;
43152;SDS011;28756;49.064;9.290;2022-10-16T00:38:31;2.10;;;0.73;;
43152;SDS011;28756;49.064;9.290;2022-10-16T00:40:57;2.10;;;0.80;;
43152;SDS011;28756;49.064;9.290;2022-10-16T00:48:54;1.77;;;1.00;;
43152;SDS011;28756;49.064;9.290;2022-10-16T00:51:42;1.30;;;0.82;;
43152;SDS011;28756;49.064;9.290;2022-10-16T00:54:22;1.17;;;0.70;;
43152;SDS011;28756;49.064;9.290;2022-10-16T00:56:55;2.63;;;0.88;;
43152;SDS011;28756;49.064;9.290;2022-10-16T00:59:27;2.10;;;0.90;;
43152;SDS011;28756;49.064;9.290;2022-10-16T01:01:56;1.95;;;0.73;;
43152;SDS011;28756;49.064;9.290;2022-10-16T01:04:23;2.47;;;0.90;;
43152;SDS011;28756;49.064;9.290;2022-10-16T01:09:36;2.22;;;0.73;;
43152;SDS011;28756;49.064;9.290;2022-10-16T01:13:15;1.48;;;0.77;;
43152;SDS011;28756;49.064;9.290;2022-10-16T01:18:30;3.13;;;1.00;;
43152;SDS011;28756;49.064;9.290;2022-10-16T01:21:28;0.82;;;0.70;;
43152;SDS011;28756;49.064;9.290;2022-10-16T01:30:02;1.98;;;0.82;;
43152;SDS011;28756;49.064;9.290;2022-10-16T01:32:46;1.15;;;0.90;;
43152;SDS011;28756;49.064;9.290;2022-10-16T01:35:33;1.40;;;1.00;;
43152;SDS011;28756;49.064;9.290;2022-10-16T01:38:06;3.78;;;1.02;;
43152;SDS011;28756;49.064;9.290;2022-10-16T01:40:41;1.30;;;1.00;;
43152;SDS011;28756;49.064;9.290;2022-10-16T01:43:14;2.53;;;0.93;;
43152;SDS011;28756;49.064;9.290;2022-10-16T01:45:45;0.88;;;0.77;;
43152;SDS011;28756;49.064;9.290;2022-10-16T01:48:13;2.53;;;1.00;;
43152;SDS011;28756;49.064;9.290;2022-10-16T01:50:44;1.73;;;1.10;;
43152;SDS011;28756;49.064;9.290;2022-10-16T01:53:19;0.90;;;0.82;;
43152;SDS011;28756;49.064;9.290;2022-10-16T01:55:47;1.10;;;0.80;;
43152;SDS011;28756;49.064;9.290;2022-10-16T01:58:14;3.20;;;0.70;;
43152;SDS011;28756;49.064;9.290;2022-10-16T02:00:42;1.73;;;0.80;;
43152;SDS011;28756;49.064;9.290;2022-10-16T02:03:12;2.15;;;1.00;;
43152;SDS011;28756;49.064;9.290;2022-10-16T02:05:42;1.20;;;0.85;;
43152;SDS011;28756;49.064;9.290;2022-10-16T02:08:18;1.10;;;0.80;;
43152;SDS011;28756;49.064;9.290;2022-10-16T02:10:44;2.00;;;0.90;;
43152;SDS011;28756;49.064;9.290;2022-10-16T02:15:44;0.95;;;0.80;;
43152;SDS011;28756;49.064;9.290;2022-10-16T02:18:10;1.10;;;0.73;;
43152;SDS011;28756;49.064;9.290;2022-10-16T02:20:38;2.13;;;0.75;;
43152;SDS011;28756;49.064;9.290;2022-10-16T02:23:22;1.10;;;0.77;;
43152;SDS011;28756;49.064;9.290;2022-10-16T02:26:03;1.55;;;0.80;;
43152;SDS011;28756;49.064;9.290;2022-10-16T02:28:36;1.70;;;0.88;;
43152;SDS011;28756;49.064;9.290;2022-10-16T02:31:13;3.15;;;1.05;;
43152;SDS011;28756;49.064;9.290;2022-10-16T02:33:46;1.17;;;0.70;;
43152;SDS011;28756;49.064;9.290;2022-10-16T02:36:12;1.40;;;0.90;;
43152;SDS011;28756;49.064;9.290;2022-10-16T02:38:39;2.05;;;1.15;;
43152;SDS011;28756;49.064;9.290;2022-10-16T02:41:06;1.50;;;0.90;;
43152;SDS011;28756;49.064;9.290;2022-10-16T02:43:32;1.73;;;0.70;;
43152;SDS011;28756;49.064;9.290;2022-10-16T02:45:59;1.23;;;0.90;;
43152;SDS011;28756;49.064;9.290;2022-10-16T02:48:25;1.55;;;0.90;;
43152;SDS011;28756;49.064;9.290;2022-10-16T02:50:50;2.22;;;0.70;;
43152;SDS011;28756;49.064;9.290;2022-10-16T02:53:16;1.95;;;0.80;;
43152;SDS011;28756;49.064;9.290;2022-10-16T02:55:42;1.55;;;0.70;;
43152;SDS011;28756;49.064;9.290;2022-10-16T02:58:08;0.60;;;0.50;;
43152;SDS011;28756;49.064;9.290;2022-10-16T03:00:33;3.63;;;0.70;;
43152;SDS011;28756;49.064;9.290;2022-10-16T03:02:59;1.48;;;0.70;;
43152;SDS011;28756;49.064;9.290;2022-10-16T03:05:25;1.00;;;0.90;;
43152;SDS011;28756;49.064;9.290;2022-10-16T03:07:50;0.82;;;0.70;;
43152;SDS011;28756;49.064;9.290;2022-10-16T03:10:17;1.58;;;0.70;;
43152;SDS011;28756;49.064;9.290;2022-10-16T03:12:43;0.60;;;0.50;;
43152;SDS011;28756;49.064;9.290;2022-10-16T03:15:09;0.75;;;0.68;;
43152;SDS011;28756;49.064;9.290;2022-10-16T03:17:35;0.70;;;0.50;;
43152;SDS011;28756;49.064;9.290;2022-10-16T03:20:01;0.55;;;0.50;;
43152;SDS011;28756;49.064;9.290;2022-10-16T03:22:27;0.80;;;0.60;;
43152;SDS011;28756;49.064;9.290;2022-10-16T03:24:53;0.70;;;0.60;;
43152;SDS011;28756;49.064;9.290;2022-10-16T03:27:19;2.17;;;0.60;;
43152;SDS011;28756;49.064;9.290;2022-10-16T03:29:45;1.20;;;0.82;;
43152;SDS011;28756;49.064;9.290;2022-10-16T03:32:11;0.90;;;0.60;;
43152;SDS011;28756;49.064;9.290;2022-10-16T03:34:37;0.90;;;0.80;;
43152;SDS011;28756;49.064;9.290;2022-10-16T03:37:02;1.25;;;0.63;;
43152;SDS011;28756;49.064;9.290;2022-10-16T03:39:28;1.42;;;0.60;;
43152;SDS011;28756;49.064;9.290;2022-10-16T03:41:54;0.70;;;0.60;;
43152;SDS011;28756;49.064;9.290;2022-10-16T03:44:20;0.65;;;0.65;;
43152;SDS011;28756;49.064;9.290;2022-10-16T03:46:46;1.00;;;0.73;;
43152;SDS011;28756;49.064;9.290;2022-10-16T03:49:12;3.30;;;1.00;;
43152;SDS011;28756;49.064;9.290;2022-10-16T03:51:37;1.05;;;0.80;;
43152;SDS011;28756;49.064;9.290;2022-10-16T03:54:03;0.70;;;0.60;;
43152;SDS011;28756;49.064;9.290;2022-10-16T03:56:29;0.80;;;0.60;;
43152;SDS011;28756;49.064;9.290;2022-10-16T03:58:55;1.02;;;0.82;;
43152;SDS011;28756;49.064;9.290;2022-10-16T04:01:20;0.80;;;0.80;;
43152;SDS011;28756;49.064;9.290;2022-10-16T04:03:46;1.25;;;0.80;;
43152;SDS011;28756;49.064;9.290;2022-10-16T04:06:12;2.13;;;0.77;;
43152;SDS011;28756;49.064;9.290;2022-10-16T04:08:37;2.33;;;0.90;;
43152;SDS011;28756;49.064;9.290;2022-10-16T04:11:04;1.00;;;0.70;;
43152;SDS011;28756;49.064;9.290;2022-10-16T04:13:30;2.80;;;0.85;;
43152;SDS011;28756;49.064;9.290;2022-10-16T04:15:55;1.00;;;0.77;;
43152;SDS011;28756;49.064;9.290;2022-10-16T04:18:21;1.70;;;0.80;;
43152;SDS011;28756;49.064;9.290;2022-10-16T04:20:47;2.28;;;0.93;;
43152;SDS011;28756;49.064;9.290;2022-10-16T04:23:13;0.90;;;0.80;;
43152;SDS011;28756;49.064;9.290;2022-10-16T04:25:39;1.20;;;0.73;;
43152;SDS011;28756;49.064;9.290;2022-10-16T04:28:05;1.23;;;0.80;;
43152;SDS011;28756;49.064;9.290;2022-10-16T04:30:31;3.03;;;0.70;;
43152;SDS011;28756;49.064;9.290;2022-10-16T04:32:58;1.13;;;0.70;;
43152;SDS011;28756;49.064;9.290;2022-10-16T04:35:24;1.00;;;0.52;;
43152;SDS011;28756;49.064;9.290;2022-10-16T04:37:50;0.95;;;0.70;;
43152;SDS011;28756;49.064;9.290;2022-10-16T04:40:16;0.70;;;0.57;;
43152;SDS011;28756;49.064;9.290;2022-10-16T04:42:42;0.90;;;0.60;;
43152;SDS011;28756;49.064;9.290;2022-10-16T04:45:08;0.60;;;0.50;;
43152;SDS011;28756;49.064;9.290;2022-10-16T04:47:34;0.80;;;0.70;;
43152;SDS011;28756;49.064;9.290;2022-10-16T04:49:59;0.68;;;0.60;;
43152;SDS011;28756;49.064;9.290;2022-10-16T04:52:27;1.13;;;0.63;;
43152;SDS011;28756;49.064;9.290;2022-10-16T04:54:53;0.70;;;0.60;;
43152;SDS011;28756;49.064;9.290;2022-10-16T04:57:20;0.70;;;0.60;;
43152;SDS011;28756;49.064;9.290;2022-10-16T04:59:46;2.45;;;0.55;;
43152;SDS011;28756;49.064;9.290;2022-10-16T05:02:11;1.25;;;0.60;;
43152;SDS011;28756;49.064;9.290;2022-10-16T05:04:37;0.60;;;0.50;;
43152;SDS011;28756;49.064;9.290;2022-10-16T05:07:03;1.67;;;0.60;;
43152;SDS011;28756;49.064;9.290;2022-10-16T05:09:28;0.75;;;0.52;;
43152;SDS011;28756;49.064;9.290;2022-10-16T05:11:54;0.50;;;0.50;;
43152;SDS011;28756;49.064;9.290;2022-10-16T05:14:20;1.98;;;0.60;;
43152;SDS011;28756;49.064;9.290;2022-10-16T05:16:46;2.28;;;0.65;;
43152;SDS011;28756;49.064;9.290;2022-10-16T05:19:13;1.27;;;0.60;;
43152;SDS011;28756;49.064;9.290;2022-10-16T05:21:38;1.23;;;0.50;;
43152;SDS011;28756;49.064;9.290;2022-10-16T05:24:04;0.60;;;0.50;;
43152;SDS011;28756;49.064;9.290;2022-10-16T05:26:30;1.65;;;0.60;;
43152;SDS011;28756;49.064;9.290;2022-10-16T05:28:56;0.60;;;0.40;;
43152;SDS011;28756;49.064;9.290;2022-10-16T05:31:21;0.95;;;0.52;;
43152;SDS011;28756;49.064;9.290;2022-10-16T05:33:47;0.88;;;0.73;;
43152;SDS011;28756;49.064;9.290;2022-10-16T05:36:13;0.93;;;0.80;;
43152;SDS011;28756;49.064;9.290;2022-10-16T05:38:39;1.33;;;0.80;;
43152;SDS011;28756;49.064;9.290;2022-10-16T05:41:05;0.90;;;0.50;;
43152;SDS011;28756;49.064;9.290;2022-10-16T05:43:31;1.10;;;0.70;;
43152;SDS011;28756;49.064;9.290;2022-10-16T05:45:57;0.75;;;0.70;;
43152;SDS011;28756;49.064;9.290;2022-10-16T05:48:30;1.10;;;0.55;;
43152;SDS011;28756;49.064;9.290;2022-10-16T05:51:00;0.63;;;0.52;;
43152;SDS011;28756;49.064;9.290;2022-10-16T05:53:29;1.00;;;0.80;;
43152;SDS011;28756;49.064;9.290;2022-10-16T05:55:57;0.80;;;0.60;;
43152;SDS011;28756;49.064;9.290;2022-10-16T05:58:24;1.58;;;0.75;;
43152;SDS011;28756;49.064;9.290;2022-10-16T06:00:54;1.52;;;0.68;;
43152;SDS011;28756;49.064;9.290;2022-10-16T06:03:22;0.75;;;0.63;;
43152;SDS011;28756;49.064;9.290;2022-10-16T06:05:48;0.73;;;0.70;;
43152;SDS011;28756;49.064;9.290;2022-10-16T06:08:14;0.90;;;0.60;;
43152;SDS011;28756;49.064;9.290;2022-10-16T06:10:40;0.82;;;0.70;;
43152;SDS011;28756;49.064;9.290;2022-10-16T06:13:06;0.63;;;0.60;;
43152;SDS011;28756;49.064;9.290;2022-10-16T06:15:32;0.60;;;0.55;;
43152;SDS011;28756;49.064;9.290;2022-10-16T06:17:58;1.25;;;0.82;;
43152;SDS011;28756;49.064;9.290;2022-10-16T06:20:23;3.65;;;0.77;;
43152;SDS011;28756;49.064;9.290;2022-10-16T06:22:49;1.60;;;0.70;;
43152;SDS011;28756;49.064;9.290;2022-10-16T06:25:15;0.75;;;0.68;;
43152;SDS011;28756;49.064;9.290;2022-10-16T06:27:40;2.03;;;0.70;;
43152;SDS011;28756;49.064;9.290;2022-10-16T06:30:06;1.05;;;0.80;;
43152;SDS011;28756;49.064;9.290;2022-10-16T06:32:33;0.80;;;0.70;;
43152;SDS011;28756;49.064;9.290;2022-10-16T06:34:59;0.90;;;0.80;;
43152;SDS011;28756;49.064;9.290;2022-10-16T06:37:24;2.70;;;0.70;;
43152;SDS011;28756;49.064;9.290;2022-10-16T06:39:51;1.00;;;0.57;;
43152;SDS011;28756;49.064;9.290;2022-10-16T06:42:17;0.75;;;0.60;;
43152;SDS011;28756;49.064;9.290;2022-10-16T06:44:44;1.27;;;0.90;;
43152;SDS011;28756;49.064;9.290;2022-10-16T06:47:09;2.08;;;0.80;;
43152;SDS011;28756;49.064;9.290;2022-10-16T06:49:35;1.45;;;0.80;;
43152;SDS011;28756;49.064;9.290;2022-10-16T06:52:01;2.35;;;0.73;;
43152;SDS011;28756;49.064;9.290;2022-10-16T06:54:28;1.55;;;0.80;;
43152;SDS011;28756;49.064;9.290;2022-10-16T06:56:53;2.40;;;0.77;;
43152;SDS011;28756;49.064;9.290;2022-10-16T06:59:20;1.10;;;0.80;;
43152;SDS011;28756;49.064;9.290;2022-10-16T07:01:47;0.80;;;0.70;;
43152;SDS011;28756;49.064;9.290;2022-10-16T07:04:13;0.70;;;0.70;;
43152;SDS011;28756;49.064;9.290;2022-10-16T07:06:38;1.50;;;0.88;;
43152;SDS011;28756;49.064;9.290;2022-10-16T07:09:06;2.25;;;0.63;;
43152;SDS011;28756;49.064;9.290;2022-10-16T07:11:35;1.20;;;0.70;;
43152;SDS011;28756;49.064;9.290;2022-10-16T07:14:04;2.35;;;0.80;;
43152;SDS011;28756;49.064;9.290;2022-10-16T07:16:33;1.98;;;0.60;;
43152;SDS011;28756;49.064;9.290;2022-10-16T07:19:01;1.23;;;0.70;;
43152;SDS011;28756;49.064;9.290;2022-10-16T07:21:28;0.90;;;0.63;;
43152;SDS011;28756;49.064;9.290;2022-10-16T07:24:02;2.10;;;0.60;;
43152;SDS011;28756;49.064;9.290;2022-10-16T07:26:33;1.00;;;0.60;;
43152;SDS011;28756;49.064;9.290;2022-10-16T07:29:01;1.73;;;0.70;;
43152;SDS011;28756;49.064;9.290;2022-10-16T07:31:28;1.33;;;0.70;;
43152;SDS011;28756;49.064;9.290;2022-10-16T07:33:54;1.13;;;0.80;;
43152;SDS011;28756;49.064;9.290;2022-10-16T07:36:20;2.17;;;0.90;;
43152;SDS011;28756;49.064;9.290;2022-10-16T07:38:46;1.85;;;1.10;;
43152;SDS011;28756;49.064;9.290;2022-10-16T07:41:16;1.58;;;1.10;;
43152;SDS011;28756;49.064;9.290;2022-10-16T07:43:51;1.67;;;0.90;;
43152;SDS011;28756;49.064;9.290;2022-10-16T07:46:18;1.73;;;0.90;;
43152;SDS011;28756;49.064;9.290;2022-10-16T07:48:45;2.65;;;0.93;;
43152;SDS011;28756;49.064;9.290;2022-10-16T07:51:13;1.40;;;0.90;;
43152;SDS011;28756;49.064;9.290;2022-10-16T07:53:42;1.40;;;0.80;;
43152;SDS011;28756;49.064;9.290;2022-10-16T07:56:08;1.63;;;0.85;;
43152;SDS011;28756;49.064;9.290;2022-10-16T07:58:34;0.68;;;0.55;;
43152;SDS011;28756;49.064;9.290;2022-10-16T08:01:05;1.33;;;0.80;;
43152;SDS011;28756;49.064;9.290;2022-10-16T08:03:34;1.58;;;0.80;;
43152;SDS011;28756;49.064;9.290;2022-10-16T08:06:00;1.08;;;0.75;;
43152;SDS011;28756;49.064;9.290;2022-10-16T08:08:26;0.65;;;0.60;;
43152;SDS011;28756;49.064;9.290;2022-10-16T08:10:53;1.17;;;0.73;;
43152;SDS011;28756;49.064;9.290;2022-10-16T08:13:19;0.77;;;0.60;;
43152;SDS011;28756;49.064;9.290;2022-10-16T08:15:45;0.90;;;0.70;;
43152;SDS011;28756;49.064;9.290;2022-10-16T08:18:12;1.42;;;0.80;;
43152;SDS011;28756;49.064;9.290;2022-10-16T08:20:39;1.80;;;0.85;;
43152;SDS011;28756;49.064;9.290;2022-10-16T08:23:07;1.20;;;0.80;;
43152;SDS011;28756;49.064;9.290;2022-10-16T08:25:35;0.93;;;0.80;;
43152;SDS011;28756;49.064;9.290;2022-10-16T08:28:05;2.60;;;0.90;;
43152;SDS011;28756;49.064;9.290;2022-10-16T08:30:34;1.75;;;1.55;;
43152;SDS011;28756;49.064;9.290;2022-10-16T08:33:00;2.08;;;1.65;;
43152;SDS011;28756;49.064;9.290;2022-10-16T08:35:27;1.55;;;1.30;;
43152;SDS011;28756;49.064;9.290;2022-10-16T08:37:52;1.20;;;1.00;;
43152;SDS011;28756;49.064;9.290;2022-10-16T08:40:28;1.85;;;0.90;;
43152;SDS011;28756;49.064;9.290;2022-10-16T08:43:07;1.55;;;0.90;;
43152;SDS011;28756;49.064;9.290;2022-10-16T08:51:19;2.92;;;0.90;;
43152;SDS011;28756;49.064;9.290;2022-10-16T08:54:01;1.88;;;0.90;;
43152;SDS011;28756;49.064;9.290;2022-10-16T08:56:30;4.57;;;2.22;;
43152;SDS011;28756;49.064;9.290;2022-10-16T08:58:57;2.90;;;1.58;;
43152;SDS011;28756;49.064;9.290;2022-10-16T09:01:25;1.77;;;1.48;;
43152;SDS011;28756;49.064;9.290;2022-10-16T09:13:35;3.58;;;0.80;;
43152;SDS011;28756;49.064;9.290;2022-10-16T09:16:35;1.10;;;0.60;;
43152;SDS011;28756;49.064;9.290;2022-10-16T09:19:20;2.00;;;1.00;;
43152;SDS011;28756;49.064;9.290;2022-10-16T09:21:59;1.25;;;0.80;;
43152;SDS011;28756;49.064;9.290;2022-10-16T09:24:34;3.35;;;0.85;;
43152;SDS011;28756;49.064;9.290;2022-10-16T09:27:00;2.08;;;0.90;;
43152;SDS011;28756;49.064;9.290;2022-10-16T09:29:26;0.60;;;0.60;;
43152;SDS011;28756;49.064;9.290;2022-10-16T09:31:52;1.13;;;0.60;;
43152;SDS011;28756;49.064;9.290;2022-10-16T09:37:03;1.02;;;0.70;;
43152;SDS011;28756;49.064;9.290;2022-10-16T09:39:44;1.13;;;0.70;;
43152;SDS011;28756;49.064;9.290;2022-10-16T09:42:18;1.17;;;0.80;;
43152;SDS011;28756;49.064;9.290;2022-10-16T09:44:51;1.15;;;0.68;;
43152;SDS011;28756;49.064;9.290;2022-10-16T09:47:19;1.50;;;0.90;;
43152;SDS011;28756;49.064;9.290;2022-10-16T09:52:25;1.10;;;0.77;;
43152;SDS011;28756;49.064;9.290;2022-10-16T09:54:51;2.45;;;0.70;;
43152;SDS011;28756;49.064;9.290;2022-10-16T09:57:19;2.35;;;0.80;;
43152;SDS011;28756;49.064;9.290;2022-10-16T09:59:49;1.73;;;0.70;;
43152;SDS011;28756;49.064;9.290;2022-10-16T10:02:30;0.93;;;0.60;;
43152;SDS011;28756;49.064;9.290;2022-10-16T10:05:02;1.02;;;0.75;;
43152;SDS011;28756;49.064;9.290;2022-10-16T10:07:43;1.42;;;0.60;;
43152;SDS011;28756;49.064;9.290;2022-10-16T10:10:26;2.90;;;0.75;;
43152;SDS011;28756;49.064;9.290;2022-10-16T10:12:54;0.98;;;0.70;;
43152;SDS011;28756;49.064;9.290;2022-10-16T10:15:21;1.10;;;0.70;;
43152;SDS011;28756;49.064;9.290;2022-10-16T10:20:29;0.70;;;0.57;;
43152;SDS011;28756;49.064;9.290;2022-10-16T10:23:19;1.77;;;0.70;;
43152;SDS011;28756;49.064;9.290;2022-10-16T10:28:44;1.55;;;0.70;;
43152;SDS011;28756;49.064;9.290;2022-10-16T10:31:47;1.48;;;0.75;;
43152;SDS011;28756;49.064;9.290;2022-10-16T10:43:21;2.15;;;0.80;;
43152;SDS011;28756;49.064;9.290;2022-10-16T10:45:59;2.33;;;0.77;;
43152;SDS011;28756;49.064;9.290;2022-10-16T10:49:31;2.30;;;0.93;;
43152;SDS011;28756;49.064;9.290;2022-10-16T10:55:00;4.13;;;0.88;;
43152;SDS011;28756;49.064;9.290;2022-10-16T11:00:34;1.75;;;0.70;;
43152;SDS011;28756;49.064;9.290;2022-10-16T11:06:08;1.15;;;0.93;;
43152;SDS011;28756;49.064;9.290;2022-10-16T11:15:34;0.80;;;0.70;;
43152;SDS011;28756;49.064;9.290;2022-10-16T11:21:12;1.40;;;0.73;;
43152;SDS011;28756;49.064;9.290;2022-10-16T11:23:46;1.70;;;0.70;;
43152;SDS011;28756;49.064;9.290;2022-10-16T11:26:44;0.88;;;0.70;;
43152;SDS011;28756;49.064;9.290;2022-10-16T11:29:15;1.48;;;1.02;;
43152;SDS011;28756;49.064;9.290;2022-10-16T11:31:59;0.70;;;0.52;;
43152;SDS011;28756;49.064;9.290;2022-10-16T11:34:42;5.15;;;0.82;;
43152;SDS011;28756;49.064;9.290;2022-10-16T11:37:17;0.82;;;0.70;;
43152;SDS011;28756;49.064;9.290;2022-10-16T11:40:00;2.00;;;0.80;;
43152;SDS011;28756;49.064;9.290;2022-10-16T11:43:11;3.70;;;1.30;;
43152;SDS011;28756;49.064;9.290;2022-10-16T11:45:43;3.20;;;1.88;;
43152;SDS011;28756;49.064;9.290;2022-10-16T11:48:25;2.85;;;1.30;;
43152;SDS011;28756;49.064;9.290;2022-10-16T11:56:46;0.68;;;0.68;;
43152;SDS011;28756;49.064;9.290;2022-10-16T12:02:23;1.45;;;0.90;;
43152;SDS011;28756;49.064;9.290;2022-10-16T12:08:20;3.13;;;0.88;;
43152;SDS011;28756;49.064;9.290;2022-10-16T12:10:47;2.83;;;0.82;;
43152;SDS011;28756;49.064;9.290;2022-10-16T12:13:29;1.55;;;0.80;;
43152;SDS011;28756;49.064;9.290;2022-10-16T12:18:37;2.08;;;0.70;;
43152;SDS011;28756;49.064;9.290;2022-10-16T12:21:08;3.35;;;0.82;;
43152;SDS011;28756;49.064;9.290;2022-10-16T12:23:45;4.75;;;0.80;;
43152;SDS011;28756;49.064;9.290;2022-10-16T12:26:12;2.92;;;0.77;;
43152;SDS011;28756;49.064;9.290;2022-10-16T12:28:38;1.17;;;0.80;;
43152;SDS011;28756;49.064;9.290;2022-10-16T12:31:06;2.92;;;0.90;;
43152;SDS011;28756;49.064;9.290;2022-10-16T12:36:05;2.30;;;0.80;;
43152;SDS011;28756;49.064;9.290;2022-10-16T12:38:50;2.00;;;0.90;;
43152;SDS011;28756;49.064;9.290;2022-10-16T12:41:33;1.13;;;1.00;;
43152;SDS011;28756;49.064;9.290;2022-10-16T12:44:04;1.52;;;0.80;;
43152;SDS011;28756;49.064;9.290;2022-10-16T12:46:46;1.08;;;0.63;;
43152;SDS011;28756;49.064;9.290;2022-10-16T12:51:37;1.65;;;0.80;;
43152;SDS011;28756;49.064;9.290;2022-10-16T12:54:04;1.95;;;0.77;;
43152;SDS011;28756;49.064;9.290;2022-10-16T13:08:44;1.75;;;0.70;;
43152;SDS011;28756;49.064;9.290;2022-10-16T13:14:45;0.80;;;0.65;;
43152;SDS011;28756;49.064;9.290;2022-10-16T13:18:05;0.70;;;0.70;;
43152;SDS011;28756;49.064;9.290;2022-10-16T13:21:04;1.38;;;0.80;;
43152;SDS011;28756;49.064;9.290;2022-10-16T13:23:37;1.13;;;0.80;;
43152;SDS011;28756;49.064;9.290;2022-10-16T13:26:51;0.68;;;0.68;;
43152;SDS011;28756;49.064;9.290;2022-10-16T13:29:31;0.85;;;0.70;;
43152;SDS011;28756;49.064;9.290;2022-10-16T13:31:58;2.30;;;0.70;;
43152;SDS011;28756;49.064;9.290;2022-10-16T13:34:31;0.90;;;0.80;;
43152;SDS011;28756;49.064;9.290;2022-10-16T13:36:57;1.15;;;0.90;;
43152;SDS011;28756;49.064;9.290;2022-10-16T13:39:24;1.85;;;0.85;;
43152;SDS011;28756;49.064;9.290;2022-10-16T13:42:09;0.85;;;0.73;;
43152;SDS011;28756;49.064;9.290;2022-10-16T13:44:40;1.17;;;0.73;;
43152;SDS011;28756;49.064;9.290;2022-10-16T13:47:17;1.10;;;0.80;;
43152;SDS011;28756;49.064;9.290;2022-10-16T13:50:02;0.77;;;0.60;;
43152;SDS011;28756;49.064;9.290;2022-10-16T13:52:31;1.33;;;0.60;;
43152;SDS011;28756;49.064;9.290;2022-10-16T13:54:57;0.80;;;0.70;;
43152;SDS011;28756;49.064;9.290;2022-10-16T13:57:23;1.30;;;0.70;;
43152;SDS011;28756;49.064;9.290;2022-10-16T13:59:50;1.13;;;0.70;;
43152;SDS011;28756;49.064;9.290;2022-10-16T14:05:00;1.50;;;0.73;;
43152;SDS011;28756;49.064;9.290;2022-10-16T14:07:33;1.58;;;0.63;;
43152;SDS011;28756;49.064;9.290;2022-10-16T14:10:01;3.83;;;0.88;;
43152;SDS011;28756;49.064;9.290;2022-10-16T14:12:42;1.67;;;0.80;;
43152;SDS011;28756;49.064;9.290;2022-10-16T14:15:15;1.00;;;0.82;;
43152;SDS011;28756;49.064;9.290;2022-10-16T14:17:44;0.88;;;0.70;;
43152;SDS011;28756;49.064;9.290;2022-10-16T14:20:15;1.45;;;0.70;;
43152;SDS011;28756;49.064;9.290;2022-10-16T14:22:41;1.42;;;0.98;;
43152;SDS011;28756;49.064;9.290;2022-10-16T14:30:29;3.53;;;2.50;;
43152;SDS011;28756;49.064;9.290;2022-10-16T14:33:19;5.20;;;2.70;;
43152;SDS011;28756;49.064;9.290;2022-10-16T14:36:00;2.60;;;2.03;;
43152;SDS011;28756;49.064;9.290;2022-10-16T14:38:29;2.83;;;1.90;;
43152;SDS011;28756;49.064;9.290;2022-10-16T14:40:56;2.63;;;1.45;;
43152;SDS011;28756;49.064;9.290;2022-10-16T14:43:27;3.10;;;1.30;;
43152;SDS011;28756;49.064;9.290;2022-10-16T14:46:01;2.25;;;1.20;;
43152;SDS011;28756;49.064;9.290;2022-10-16T14:48:31;2.20;;;1.10;;
43152;SDS011;28756;49.064;9.290;2022-10-16T14:50:57;1.73;;;1.08;;
43152;SDS011;28756;49.064;9.290;2022-10-16T14:53:23;1.38;;;0.88;;
43152;SDS011;28756;49.064;9.290;2022-10-16T14:55:49;1.40;;;0.90;;
43152;SDS011;28756;49.064;9.290;2022-10-16T14:58:21;4.32;;;1.00;;
43152;SDS011;28756;49.064;9.290;2022-10-16T15:00:48;3.35;;;1.10;;
43152;SDS011;28756;49.064;9.290;2022-10-16T15:03:14;1.73;;;1.42;;
43152;SDS011;28756;49.064;9.290;2022-10-16T15:05:40;1.30;;;0.93;;
43152;SDS011;28756;49.064;9.290;2022-10-16T15:08:06;1.92;;;0.90;;
43152;SDS011;28756;49.064;9.290;2022-10-16T15:10:33;4.53;;;1.25;;
43152;SDS011;28756;49.064;9.290;2022-10-16T15:13:05;1.20;;;0.70;;
43152;SDS011;28756;49.064;9.290;2022-10-16T15:15:38;1.90;;;0.80;;
43152;SDS011;28756;49.064;9.290;2022-10-16T15:18:11;1.83;;;1.00;;
43152;SDS011;28756;49.064;9.290;2022-10-16T15:20:40;1.33;;;0.88;;
43152;SDS011;28756;49.064;9.290;2022-10-16T15:23:12;0.98;;;0.70;;
43152;SDS011;28756;49.064;9.290;2022-10-16T15:25:44;1.42;;;1.00;;
43152;SDS011;28756;49.064;9.290;2022-10-16T15:28:17;1.10;;;0.80;;
43152;SDS011;28756;49.064;9.290;2022-10-16T15:30:45;3.35;;;0.93;;
43152;SDS011;28756;49.064;9.290;2022-10-16T15:33:12;1.02;;;0.80;;
43152;SDS011;28756;49.064;9.290;2022-10-16T15:35:47;4.35;;;0.90;;
43152;SDS011;28756;49.064;9.290;2022-10-16T15:38:15;2.80;;;1.05;;
43152;SDS011;28756;49.064;9.290;2022-10-16T15:40:44;3.20;;;1.20;;
43152;SDS011;28756;49.064;9.290;2022-10-16T15:43:11;4.90;;;1.60;;
43152;SDS011;28756;49.064;9.290;2022-10-16T15:45:37;2.50;;;1.48;;
43152;SDS011;28756;49.064;9.290;2022-10-16T15:48:03;1.70;;;1.10;;
43152;SDS011;28756;49.064;9.290;2022-10-16T15:50:30;3.08;;;1.20;;
43152;SDS011;28756;49.064;9.290;2022-10-16T15:52:56;2.83;;;1.00;;
43152;SDS011;28756;49.064;9.290;2022-10-16T15:55:22;1.20;;;1.05;;
43152;SDS011;28756;49.064;9.290;2022-10-16T15:57:48;4.38;;;1.10;;
43152;SDS011;28756;49.064;9.290;2022-10-16T16:00:15;5.57;;;1.15;;
43152;SDS011;28756;49.064;9.290;2022-10-16T16:02:43;2.00;;;1.10;;
43152;SDS011;28756;49.064;9.290;2022-10-16T16:05:14;3.28;;;1.33;;
43152;SDS011;28756;49.064;9.290;2022-10-16T16:07:40;1.15;;;1.00;;
43152;SDS011;28756;49.064;9.290;2022-10-16T16:10:07;4.15;;;1.10;;
43152;SDS011;28756;49.064;9.290;2022-10-16T16:12:35;2.15;;;1.00;;
43152;SDS011;28756;49.064;9.290;2022-10-16T16:15:01;1.58;;;0.90;;
43152;SDS011;28756;49.064;9.290;2022-10-16T16:17:30;5.28;;;1.00;;
43152;SDS011;28756;49.064;9.290;2022-10-16T16:19:57;9.93;;;2.00;;
43152;SDS011;28756;49.064;9.290;2022-10-16T16:22:23;5.40;;;1.15;;
43152;SDS011;28756;49.064;9.290;2022-10-16T16:24:49;1.98;;;1.10;;
43152;SDS011;28756;49.064;9.290;2022-10-16T16:27:15;2.55;;;1.13;;
43152;SDS011;28756;49.064;9.290;2022-10-16T16:29:41;1.20;;;1.10;;
43152;SDS011;28756;49.064;9.290;2022-10-16T16:32:06;1.98;;;1.10;;
43152;SDS011;28756;49.064;9.290;2022-10-16T16:34:32;2.20;;;1.05;;
43152;SDS011;28756;49.064;9.290;2022-10-16T16:36:58;3.15;;;1.35;;
43152;SDS011;28756;49.064;9.290;2022-10-16T16:39:24;2.38;;;1.83;;
43152;SDS011;28756;49.064;9.290;2022-10-16T16:41:50;2.22;;;1.60;;
43152;SDS011;28756;49.064;9.290;2022-10-16T16:44:16;2.85;;;1.95;;
43152;SDS011;28756;49.064;9.290;2022-10-16T16:46:42;4.95;;;2.28;;
43152;SDS011;28756;49.064;9.290;2022-10-16T16:49:10;3.83;;;1.83;;
43152;SDS011;28756;49.064;9.290;2022-10-16T16:51:38;2.20;;;1.77;;
43152;SDS011;28756;49.064;9.290;2022-10-16T16:54:04;2.30;;;2.10;;
43152;SDS011;28756;49.064;9.290;2022-10-16T16:56:31;2.63;;;2.00;;
43152;SDS011;28756;49.064;9.290;2022-10-16T16:58:58;3.63;;;2.00;;
43152;SDS011;28756;49.064;9.290;2022-10-16T17:01:25;2.13;;;1.65;;
43152;SDS011;28756;49.064;9.290;2022-10-16T17:03:52;2.13;;;1.50;;